sensor_id;sensor_type;location;lat;lon;timestamp;P1;durP1;ratioP1;P2;durP2;ratioP2
29378;SDS011;16362;47.202;15.258;2022-07-22T00:02:10;7.50;;;5.90;;
29378;SDS011;16362;47.202;15.258;2022-07-22T00:04:48;5.18;;;4.78;;
29378;SDS011;16362;47.202;15.258;2022-07-22T00:09:46;5.05;;;4.80;;
29378;SDS011;16362;47.202;15.258;2022-07-22T00:12:12;6.35;;;5.40;;
29378;SDS011;16362;47.202;15.258;2022-07-22T00:14:39;5.20;;;4.57;;
29378;SDS011;16362;47.202;15.258;2022-07-22T00:17:06;6.00;;;5.50;;
29378;SDS011;16362;47.202;15.258;2022-07-22T00:19:33;6.70;;;5.95;;
29378;SDS011;16362;47.202;15.258;2022-07-22T00:22:01;9.10;;;5.72;;
29378;SDS011;16362;47.202;15.258;2022-07-22T00:24:39;5.68;;;5.28;;
29378;SDS011;16362;47.202;15.258;2022-07-22T00:27:06;5.80;;;5.28;;
29378;SDS011;16362;47.202;15.258;2022-07-22T00:29:33;5.60;;;5.30;;
29378;SDS011;16362;47.202;15.258;2022-07-22T00:31:59;6.10;;;5.60;;
29378;SDS011;16362;47.202;15.258;2022-07-22T00:34:26;5.35;;;4.95;;
29378;SDS011;16362;47.202;15.258;2022-07-22T00:36:53;5.82;;;5.43;;
29378;SDS011;16362;47.202;15.258;2022-07-22T00:39:20;7.55;;;5.47;;
29378;SDS011;16362;47.202;15.258;2022-07-22T00:41:48;5.60;;;5.10;;
29378;SDS011;16362;47.202;15.258;2022-07-22T00:44:16;8.13;;;5.43;;
29378;SDS011;16362;47.202;15.258;2022-07-22T00:46:43;6.93;;;6.03;;
29378;SDS011;16362;47.202;15.258;2022-07-22T00:49:10;10.05;;;6.10;;
29378;SDS011;16362;47.202;15.258;2022-07-22T00:51:37;7.70;;;5.88;;
29378;SDS011;16362;47.202;15.258;2022-07-22T00:54:06;9.88;;;5.53;;
29378;SDS011;16362;47.202;15.258;2022-07-22T00:56:34;5.78;;;5.25;;
29378;SDS011;16362;47.202;15.258;2022-07-22T00:59:03;6.28;;;5.68;;
29378;SDS011;16362;47.202;15.258;2022-07-22T01:01:32;6.50;;;5.90;;
29378;SDS011;16362;47.202;15.258;2022-07-22T01:03:59;5.93;;;5.63;;
29378;SDS011;16362;47.202;15.258;2022-07-22T01:06:30;5.55;;;5.18;;
29378;SDS011;16362;47.202;15.258;2022-07-22T01:08:57;6.80;;;6.32;;
29378;SDS011;16362;47.202;15.258;2022-07-22T01:11:26;10.02;;;5.80;;
29378;SDS011;16362;47.202;15.258;2022-07-22T01:13:53;6.43;;;6.03;;
29378;SDS011;16362;47.202;15.258;2022-07-22T01:16:22;8.60;;;6.65;;
29378;SDS011;16362;47.202;15.258;2022-07-22T01:18:49;8.65;;;6.55;;
29378;SDS011;16362;47.202;15.258;2022-07-22T01:21:16;6.43;;;5.88;;
29378;SDS011;16362;47.202;15.258;2022-07-22T01:23:43;6.75;;;6.25;;
29378;SDS011;16362;47.202;15.258;2022-07-22T01:26:10;9.13;;;5.95;;
29378;SDS011;16362;47.202;15.258;2022-07-22T01:28:37;7.35;;;6.63;;
29378;SDS011;16362;47.202;15.258;2022-07-22T01:31:05;6.88;;;6.30;;
29378;SDS011;16362;47.202;15.258;2022-07-22T01:33:32;9.52;;;7.20;;
29378;SDS011;16362;47.202;15.258;2022-07-22T01:35:59;7.40;;;6.55;;
29378;SDS011;16362;47.202;15.258;2022-07-22T01:38:26;7.32;;;6.63;;
29378;SDS011;16362;47.202;15.258;2022-07-22T01:40:53;7.47;;;6.75;;
29378;SDS011;16362;47.202;15.258;2022-07-22T01:43:20;7.30;;;6.70;;
29378;SDS011;16362;47.202;15.258;2022-07-22T01:45:48;6.75;;;6.18;;
29378;SDS011;16362;47.202;15.258;2022-07-22T01:48:17;6.90;;;6.50;;
29378;SDS011;16362;47.202;15.258;2022-07-22T01:50:44;7.72;;;7.07;;
29378;SDS011;16362;47.202;15.258;2022-07-22T01:53:12;7.30;;;6.70;;
29378;SDS011;16362;47.202;15.258;2022-07-22T01:55:40;7.22;;;6.72;;
29378;SDS011;16362;47.202;15.258;2022-07-22T01:58:08;7.65;;;7.00;;
29378;SDS011;16362;47.202;15.258;2022-07-22T02:00:35;7.63;;;6.97;;
29378;SDS011;16362;47.202;15.258;2022-07-22T02:03:02;8.90;;;7.05;;
29378;SDS011;16362;47.202;15.258;2022-07-22T02:05:29;8.23;;;6.60;;
29378;SDS011;16362;47.202;15.258;2022-07-22T02:08:00;7.97;;;6.93;;
29378;SDS011;16362;47.202;15.258;2022-07-22T02:10:28;8.68;;;6.40;;
29378;SDS011;16362;47.202;15.258;2022-07-22T02:12:55;7.72;;;6.90;;
29378;SDS011;16362;47.202;15.258;2022-07-22T02:15:25;8.05;;;6.55;;
29378;SDS011;16362;47.202;15.258;2022-07-22T02:17:53;7.60;;;7.18;;
29378;SDS011;16362;47.202;15.258;2022-07-22T02:20:20;7.88;;;7.28;;
29378;SDS011;16362;47.202;15.258;2022-07-22T02:22:48;7.57;;;7.07;;
29378;SDS011;16362;47.202;15.258;2022-07-22T02:25:15;8.43;;;7.63;;
29378;SDS011;16362;47.202;15.258;2022-07-22T02:27:42;8.63;;;7.93;;
29378;SDS011;16362;47.202;15.258;2022-07-22T02:30:09;12.82;;;7.55;;
29378;SDS011;16362;47.202;15.258;2022-07-22T02:32:36;8.30;;;7.70;;
29378;SDS011;16362;47.202;15.258;2022-07-22T02:35:03;8.52;;;7.93;;
29378;SDS011;16362;47.202;15.258;2022-07-22T02:37:30;9.18;;;8.38;;
29378;SDS011;16362;47.202;15.258;2022-07-22T02:39:57;9.32;;;7.97;;
29378;SDS011;16362;47.202;15.258;2022-07-22T02:42:24;8.55;;;7.55;;
29378;SDS011;16362;47.202;15.258;2022-07-22T02:44:50;15.32;;;8.35;;
29378;SDS011;16362;47.202;15.258;2022-07-22T02:47:17;9.68;;;8.45;;
29378;SDS011;16362;47.202;15.258;2022-07-22T02:49:44;12.85;;;8.55;;
29378;SDS011;16362;47.202;15.258;2022-07-22T02:52:11;8.80;;;8.00;;
29378;SDS011;16362;47.202;15.258;2022-07-22T02:54:37;13.40;;;8.02;;
29378;SDS011;16362;47.202;15.258;2022-07-22T02:57:04;9.43;;;8.65;;
29378;SDS011;16362;47.202;15.258;2022-07-22T02:59:31;11.20;;;9.27;;
29378;SDS011;16362;47.202;15.258;2022-07-22T03:01:58;11.55;;;7.78;;
29378;SDS011;16362;47.202;15.258;2022-07-22T03:04:24;9.25;;;8.40;;
29378;SDS011;16362;47.202;15.258;2022-07-22T03:06:51;17.90;;;8.82;;
29378;SDS011;16362;47.202;15.258;2022-07-22T03:09:18;9.60;;;8.70;;
29378;SDS011;16362;47.202;15.258;2022-07-22T03:11:45;9.00;;;8.07;;
29378;SDS011;16362;47.202;15.258;2022-07-22T03:14:12;10.80;;;9.27;;
29378;SDS011;16362;47.202;15.258;2022-07-22T03:16:39;12.82;;;9.30;;
29378;SDS011;16362;47.202;15.258;2022-07-22T03:19:06;10.52;;;9.57;;
29378;SDS011;16362;47.202;15.258;2022-07-22T03:21:33;9.65;;;8.75;;
29378;SDS011;16362;47.202;15.258;2022-07-22T03:24:00;9.88;;;9.07;;
29378;SDS011;16362;47.202;15.258;2022-07-22T03:26:26;17.52;;;9.00;;
29378;SDS011;16362;47.202;15.258;2022-07-22T03:28:53;9.30;;;8.50;;
29378;SDS011;16362;47.202;15.258;2022-07-22T03:31:20;13.23;;;9.90;;
29378;SDS011;16362;47.202;15.258;2022-07-22T03:33:47;12.68;;;9.30;;
29378;SDS011;16362;47.202;15.258;2022-07-22T03:36:14;11.52;;;9.38;;
29378;SDS011;16362;47.202;15.258;2022-07-22T03:38:41;9.98;;;9.07;;
29378;SDS011;16362;47.202;15.258;2022-07-22T03:41:08;10.55;;;9.52;;
29378;SDS011;16362;47.202;15.258;2022-07-22T03:43:34;12.85;;;9.68;;
29378;SDS011;16362;47.202;15.258;2022-07-22T03:46:01;10.48;;;9.57;;
29378;SDS011;16362;47.202;15.258;2022-07-22T03:48:28;13.63;;;9.75;;
29378;SDS011;16362;47.202;15.258;2022-07-22T03:50:56;11.00;;;10.00;;
29378;SDS011;16362;47.202;15.258;2022-07-22T03:53:22;12.25;;;8.88;;
29378;SDS011;16362;47.202;15.258;2022-07-22T03:56:01;16.88;;;10.15;;
29378;SDS011;16362;47.202;15.258;2022-07-22T03:58:28;12.55;;;9.65;;
29378;SDS011;16362;47.202;15.258;2022-07-22T04:00:55;12.10;;;9.38;;
29378;SDS011;16362;47.202;15.258;2022-07-22T04:03:22;11.05;;;9.93;;
29378;SDS011;16362;47.202;15.258;2022-07-22T04:05:49;10.38;;;9.43;;
29378;SDS011;16362;47.202;15.258;2022-07-22T04:08:17;11.18;;;10.13;;
29378;SDS011;16362;47.202;15.258;2022-07-22T04:10:44;10.68;;;9.63;;
29378;SDS011;16362;47.202;15.258;2022-07-22T04:13:11;10.20;;;9.30;;
29378;SDS011;16362;47.202;15.258;2022-07-22T04:15:38;10.60;;;9.70;;
29378;SDS011;16362;47.202;15.258;2022-07-22T04:18:04;10.25;;;9.48;;
29378;SDS011;16362;47.202;15.258;2022-07-22T04:20:31;11.05;;;9.75;;
29378;SDS011;16362;47.202;15.258;2022-07-22T04:22:58;10.50;;;9.63;;
29378;SDS011;16362;47.202;15.258;2022-07-22T04:25:25;10.70;;;9.27;;
29378;SDS011;16362;47.202;15.258;2022-07-22T04:27:52;10.52;;;9.45;;
29378;SDS011;16362;47.202;15.258;2022-07-22T04:30:18;9.77;;;8.88;;
29378;SDS011;16362;47.202;15.258;2022-07-22T04:32:45;11.10;;;10.02;;
29378;SDS011;16362;47.202;15.258;2022-07-22T04:35:12;10.68;;;9.77;;
29378;SDS011;16362;47.202;15.258;2022-07-22T04:37:39;10.18;;;9.18;;
29378;SDS011;16362;47.202;15.258;2022-07-22T04:40:06;12.48;;;9.50;;
29378;SDS011;16362;47.202;15.258;2022-07-22T04:42:34;11.15;;;10.25;;
29378;SDS011;16362;47.202;15.258;2022-07-22T04:45:00;10.45;;;9.55;;
29378;SDS011;16362;47.202;15.258;2022-07-22T04:47:27;11.32;;;10.10;;
29378;SDS011;16362;47.202;15.258;2022-07-22T04:49:54;10.20;;;9.38;;
29378;SDS011;16362;47.202;15.258;2022-07-22T04:52:21;12.90;;;10.00;;
29378;SDS011;16362;47.202;15.258;2022-07-22T04:54:48;11.55;;;10.18;;
29378;SDS011;16362;47.202;15.258;2022-07-22T04:57:15;11.00;;;10.00;;
29378;SDS011;16362;47.202;15.258;2022-07-22T04:59:42;13.25;;;11.02;;
29378;SDS011;16362;47.202;15.258;2022-07-22T05:02:09;12.25;;;9.95;;
29378;SDS011;16362;47.202;15.258;2022-07-22T05:04:36;10.73;;;9.77;;
29378;SDS011;16362;47.202;15.258;2022-07-22T05:07:03;11.20;;;10.25;;
29378;SDS011;16362;47.202;15.258;2022-07-22T05:09:29;11.50;;;10.07;;
29378;SDS011;16362;47.202;15.258;2022-07-22T05:11:57;11.18;;;10.00;;
29378;SDS011;16362;47.202;15.258;2022-07-22T05:14:23;12.15;;;10.43;;
29378;SDS011;16362;47.202;15.258;2022-07-22T05:16:50;11.60;;;10.43;;
29378;SDS011;16362;47.202;15.258;2022-07-22T05:19:17;11.07;;;9.93;;
29378;SDS011;16362;47.202;15.258;2022-07-22T05:21:44;11.60;;;10.57;;
29378;SDS011;16362;47.202;15.258;2022-07-22T05:24:11;11.35;;;10.25;;
29378;SDS011;16362;47.202;15.258;2022-07-22T05:26:39;11.18;;;9.80;;
29378;SDS011;16362;47.202;15.258;2022-07-22T05:29:06;11.73;;;10.52;;
29378;SDS011;16362;47.202;15.258;2022-07-22T05:31:32;12.32;;;11.25;;
29378;SDS011;16362;47.202;15.258;2022-07-22T05:33:59;11.52;;;10.52;;
29378;SDS011;16362;47.202;15.258;2022-07-22T05:36:26;11.82;;;10.45;;
29378;SDS011;16362;47.202;15.258;2022-07-22T05:38:53;14.63;;;10.18;;
29378;SDS011;16362;47.202;15.258;2022-07-22T05:41:20;11.55;;;9.95;;
29378;SDS011;16362;47.202;15.258;2022-07-22T05:43:47;10.68;;;9.93;;
29378;SDS011;16362;47.202;15.258;2022-07-22T05:46:13;11.00;;;9.88;;
29378;SDS011;16362;47.202;15.258;2022-07-22T05:48:40;11.15;;;9.80;;
29378;SDS011;16362;47.202;15.258;2022-07-22T05:51:13;9.95;;;9.15;;
29378;SDS011;16362;47.202;15.258;2022-07-22T05:53:41;11.88;;;9.07;;
29378;SDS011;16362;47.202;15.258;2022-07-22T05:56:09;10.23;;;9.32;;
29378;SDS011;16362;47.202;15.258;2022-07-22T05:58:37;10.23;;;9.55;;
29378;SDS011;16362;47.202;15.258;2022-07-22T06:01:05;9.27;;;8.48;;
29378;SDS011;16362;47.202;15.258;2022-07-22T06:03:32;11.15;;;10.00;;
29378;SDS011;16362;47.202;15.258;2022-07-22T06:05:59;10.30;;;9.27;;
29378;SDS011;16362;47.202;15.258;2022-07-22T06:08:27;10.07;;;9.20;;
29378;SDS011;16362;47.202;15.258;2022-07-22T06:10:55;9.93;;;9.23;;
29378;SDS011;16362;47.202;15.258;2022-07-22T06:13:23;10.27;;;9.50;;
29378;SDS011;16362;47.202;15.258;2022-07-22T06:15:50;9.98;;;9.23;;
29378;SDS011;16362;47.202;15.258;2022-07-22T06:18:17;15.18;;;9.55;;
29378;SDS011;16362;47.202;15.258;2022-07-22T06:20:44;10.52;;;9.68;;
29378;SDS011;16362;47.202;15.258;2022-07-22T06:23:11;11.20;;;10.40;;
29378;SDS011;16362;47.202;15.258;2022-07-22T06:25:38;10.45;;;9.45;;
29378;SDS011;16362;47.202;15.258;2022-07-22T06:28:08;9.80;;;9.20;;
29378;SDS011;16362;47.202;15.258;2022-07-22T06:30:35;10.35;;;9.68;;
29378;SDS011;16362;47.202;15.258;2022-07-22T06:33:02;10.20;;;9.40;;
29378;SDS011;16362;47.202;15.258;2022-07-22T06:35:29;9.52;;;8.80;;
29378;SDS011;16362;47.202;15.258;2022-07-22T06:37:56;10.30;;;9.45;;
29378;SDS011;16362;47.202;15.258;2022-07-22T06:40:32;10.48;;;9.82;;
29378;SDS011;16362;47.202;15.258;2022-07-22T06:43:00;11.07;;;10.07;;
29378;SDS011;16362;47.202;15.258;2022-07-22T06:45:28;11.70;;;10.70;;
29378;SDS011;16362;47.202;15.258;2022-07-22T06:47:54;11.75;;;10.75;;
29378;SDS011;16362;47.202;15.258;2022-07-22T06:50:21;11.60;;;10.60;;
29378;SDS011;16362;47.202;15.258;2022-07-22T06:52:49;14.73;;;11.57;;
29378;SDS011;16362;47.202;15.258;2022-07-22T06:55:16;12.38;;;11.35;;
29378;SDS011;16362;47.202;15.258;2022-07-22T06:57:43;15.25;;;12.38;;
29378;SDS011;16362;47.202;15.258;2022-07-22T07:00:10;13.48;;;12.20;;
29378;SDS011;16362;47.202;15.258;2022-07-22T07:02:37;14.88;;;11.40;;
29378;SDS011;16362;47.202;15.258;2022-07-22T07:05:04;13.13;;;11.88;;
29378;SDS011;16362;47.202;15.258;2022-07-22T07:07:31;18.10;;;11.07;;
29378;SDS011;16362;47.202;15.258;2022-07-22T07:10:02;12.15;;;11.05;;
29378;SDS011;16362;47.202;15.258;2022-07-22T07:12:34;22.92;;;13.18;;
29378;SDS011;16362;47.202;15.258;2022-07-22T07:15:03;12.40;;;11.23;;
29378;SDS011;16362;47.202;15.258;2022-07-22T07:17:49;12.70;;;11.40;;
29378;SDS011;16362;47.202;15.258;2022-07-22T07:20:17;11.40;;;10.50;;
29378;SDS011;16362;47.202;15.258;2022-07-22T07:22:44;17.15;;;11.18;;
29378;SDS011;16362;47.202;15.258;2022-07-22T07:25:11;18.73;;;10.80;;
29378;SDS011;16362;47.202;15.258;2022-07-22T07:27:48;10.32;;;9.35;;
29378;SDS011;16362;47.202;15.258;2022-07-22T07:30:16;19.00;;;10.10;;
29378;SDS011;16362;47.202;15.258;2022-07-22T07:32:43;15.35;;;8.98;;
29378;SDS011;16362;47.202;15.258;2022-07-22T07:35:09;9.25;;;7.72;;
29378;SDS011;16362;47.202;15.258;2022-07-22T07:37:36;7.90;;;7.13;;
29378;SDS011;16362;47.202;15.258;2022-07-22T07:40:04;7.70;;;7.18;;
29378;SDS011;16362;47.202;15.258;2022-07-22T07:42:32;12.07;;;8.15;;
29378;SDS011;16362;47.202;15.258;2022-07-22T07:44:58;7.50;;;7.10;;
29378;SDS011;16362;47.202;15.258;2022-07-22T07:47:25;7.90;;;7.18;;
29378;SDS011;16362;47.202;15.258;2022-07-22T07:49:52;7.25;;;5.97;;
29378;SDS011;16362;47.202;15.258;2022-07-22T07:52:19;6.20;;;5.80;;
29378;SDS011;16362;47.202;15.258;2022-07-22T07:54:46;6.30;;;4.93;;
29378;SDS011;16362;47.202;15.258;2022-07-22T07:57:34;16.27;;;5.35;;
29378;SDS011;16362;47.202;15.258;2022-07-22T08:00:04;7.75;;;6.40;;
29378;SDS011;16362;47.202;15.258;2022-07-22T08:02:37;7.35;;;6.70;;
29378;SDS011;16362;47.202;15.258;2022-07-22T08:05:05;7.10;;;6.35;;
29378;SDS011;16362;47.202;15.258;2022-07-22T08:07:33;6.57;;;6.05;;
29378;SDS011;16362;47.202;15.258;2022-07-22T08:09:59;7.30;;;5.97;;
29378;SDS011;16362;47.202;15.258;2022-07-22T08:12:47;6.18;;;5.60;;
29378;SDS011;16362;47.202;15.258;2022-07-22T08:15:14;7.05;;;6.35;;
29378;SDS011;16362;47.202;15.258;2022-07-22T08:17:42;7.50;;;6.97;;
29378;SDS011;16362;47.202;15.258;2022-07-22T08:20:09;9.45;;;6.13;;
29378;SDS011;16362;47.202;15.258;2022-07-22T08:22:36;5.55;;;5.20;;
29378;SDS011;16362;47.202;15.258;2022-07-22T08:25:04;6.63;;;5.95;;
29378;SDS011;16362;47.202;15.258;2022-07-22T08:27:31;6.80;;;6.28;;
29378;SDS011;16362;47.202;15.258;2022-07-22T08:29:58;7.90;;;6.50;;
29378;SDS011;16362;47.202;15.258;2022-07-22T08:32:25;7.50;;;7.00;;
29378;SDS011;16362;47.202;15.258;2022-07-22T08:34:52;6.57;;;6.18;;
29378;SDS011;16362;47.202;15.258;2022-07-22T08:37:19;11.02;;;6.35;;
29378;SDS011;16362;47.202;15.258;2022-07-22T08:39:45;13.13;;;6.90;;
29378;SDS011;16362;47.202;15.258;2022-07-22T08:42:12;6.55;;;6.18;;
29378;SDS011;16362;47.202;15.258;2022-07-22T08:44:40;10.57;;;7.65;;
29378;SDS011;16362;47.202;15.258;2022-07-22T08:47:07;8.55;;;7.07;;
29378;SDS011;16362;47.202;15.258;2022-07-22T08:49:53;6.95;;;6.50;;
29378;SDS011;16362;47.202;15.258;2022-07-22T08:52:20;8.00;;;7.28;;
29378;SDS011;16362;47.202;15.258;2022-07-22T08:54:51;8.30;;;7.80;;
29378;SDS011;16362;47.202;15.258;2022-07-22T08:57:18;8.20;;;7.70;;
29378;SDS011;16362;47.202;15.258;2022-07-22T09:00:08;10.35;;;7.63;;
29378;SDS011;16362;47.202;15.258;2022-07-22T09:02:39;7.47;;;6.95;;
29378;SDS011;16362;47.202;15.258;2022-07-22T09:05:07;9.10;;;6.90;;
29378;SDS011;16362;47.202;15.258;2022-07-22T09:07:57;9.35;;;7.47;;
29378;SDS011;16362;47.202;15.258;2022-07-22T09:10:30;6.85;;;6.53;;
29378;SDS011;16362;47.202;15.258;2022-07-22T09:13:00;7.00;;;6.32;;
29378;SDS011;16362;47.202;15.258;2022-07-22T09:15:29;7.68;;;6.80;;
29378;SDS011;16362;47.202;15.258;2022-07-22T09:17:57;8.13;;;7.07;;
29378;SDS011;16362;47.202;15.258;2022-07-22T09:20:29;7.18;;;6.55;;
29378;SDS011;16362;47.202;15.258;2022-07-22T09:22:56;8.10;;;7.50;;
29378;SDS011;16362;47.202;15.258;2022-07-22T09:25:30;8.68;;;7.97;;
29378;SDS011;16362;47.202;15.258;2022-07-22T09:30:54;9.07;;;7.25;;
29378;SDS011;16362;47.202;15.258;2022-07-22T09:33:24;7.78;;;6.97;;
29378;SDS011;16362;47.202;15.258;2022-07-22T09:35:51;7.97;;;7.30;;
29378;SDS011;16362;47.202;15.258;2022-07-22T09:38:27;8.13;;;7.60;;
29378;SDS011;16362;47.202;15.258;2022-07-22T09:40:59;6.90;;;6.50;;
29378;SDS011;16362;47.202;15.258;2022-07-22T09:43:26;7.85;;;7.15;;
29378;SDS011;16362;47.202;15.258;2022-07-22T09:45:59;7.55;;;7.00;;
29378;SDS011;16362;47.202;15.258;2022-07-22T09:48:26;6.82;;;6.43;;
29378;SDS011;16362;47.202;15.258;2022-07-22T09:50:54;9.52;;;6.97;;
29378;SDS011;16362;47.202;15.258;2022-07-22T09:53:26;6.82;;;6.40;;
29378;SDS011;16362;47.202;15.258;2022-07-22T09:55:56;6.57;;;6.30;;
29378;SDS011;16362;47.202;15.258;2022-07-22T09:58:24;7.38;;;6.25;;
29378;SDS011;16362;47.202;15.258;2022-07-22T10:00:53;6.60;;;6.10;;
29378;SDS011;16362;47.202;15.258;2022-07-22T10:03:25;11.18;;;6.30;;
29378;SDS011;16362;47.202;15.258;2022-07-22T10:05:54;7.35;;;6.30;;
29378;SDS011;16362;47.202;15.258;2022-07-22T10:08:22;7.25;;;6.60;;
29378;SDS011;16362;47.202;15.258;2022-07-22T10:10:51;9.00;;;6.45;;
29378;SDS011;16362;47.202;15.258;2022-07-22T10:13:19;6.80;;;6.20;;
29378;SDS011;16362;47.202;15.258;2022-07-22T10:15:46;7.13;;;6.60;;
29378;SDS011;16362;47.202;15.258;2022-07-22T10:18:16;7.40;;;6.88;;
29378;SDS011;16362;47.202;15.258;2022-07-22T10:20:45;7.05;;;6.50;;
29378;SDS011;16362;47.202;15.258;2022-07-22T10:23:13;10.75;;;6.82;;
29378;SDS011;16362;47.202;15.258;2022-07-22T10:25:48;9.52;;;6.53;;
29378;SDS011;16362;47.202;15.258;2022-07-22T10:28:24;8.70;;;6.68;;
29378;SDS011;16362;47.202;15.258;2022-07-22T10:30:53;10.15;;;6.90;;
29378;SDS011;16362;47.202;15.258;2022-07-22T10:33:40;7.65;;;6.95;;
29378;SDS011;16362;47.202;15.258;2022-07-22T10:36:07;6.78;;;6.32;;
29378;SDS011;16362;47.202;15.258;2022-07-22T10:38:35;7.68;;;6.50;;
29378;SDS011;16362;47.202;15.258;2022-07-22T10:41:03;12.35;;;6.72;;
29378;SDS011;16362;47.202;15.258;2022-07-22T10:46:08;9.30;;;7.18;;
29378;SDS011;16362;47.202;15.258;2022-07-22T11:01:29;13.05;;;6.68;;
29378;SDS011;16362;47.202;15.258;2022-07-22T11:04:07;7.22;;;6.55;;
29378;SDS011;16362;47.202;15.258;2022-07-22T11:06:43;6.63;;;5.93;;
29378;SDS011;16362;47.202;15.258;2022-07-22T11:09:11;7.40;;;6.82;;
29378;SDS011;16362;47.202;15.258;2022-07-22T11:11:49;7.60;;;7.00;;
29378;SDS011;16362;47.202;15.258;2022-07-22T11:14:28;7.03;;;6.40;;
29378;SDS011;16362;47.202;15.258;2022-07-22T11:19:25;7.03;;;6.63;;
29378;SDS011;16362;47.202;15.258;2022-07-22T11:22:01;6.55;;;6.15;;
29378;SDS011;16362;47.202;15.258;2022-07-22T11:24:37;7.80;;;6.43;;
29378;SDS011;16362;47.202;15.258;2022-07-22T11:27:15;7.10;;;6.40;;
29378;SDS011;16362;47.202;15.258;2022-07-22T11:29:43;9.23;;;6.95;;
29378;SDS011;16362;47.202;15.258;2022-07-22T11:32:14;8.95;;;6.72;;
29378;SDS011;16362;47.202;15.258;2022-07-22T11:34:43;8.55;;;6.47;;
29378;SDS011;16362;47.202;15.258;2022-07-22T11:37:15;6.93;;;6.50;;
29378;SDS011;16362;47.202;15.258;2022-07-22T11:39:43;7.30;;;6.90;;
29378;SDS011;16362;47.202;15.258;2022-07-22T11:42:10;7.65;;;7.15;;
29378;SDS011;16362;47.202;15.258;2022-07-22T11:44:38;16.17;;;7.25;;
29378;SDS011;16362;47.202;15.258;2022-07-22T11:47:06;8.80;;;6.60;;
29378;SDS011;16362;47.202;15.258;2022-07-22T11:49:34;7.32;;;6.93;;
29378;SDS011;16362;47.202;15.258;2022-07-22T11:52:03;7.22;;;6.72;;
29378;SDS011;16362;47.202;15.258;2022-07-22T11:54:31;6.90;;;6.30;;
29378;SDS011;16362;47.202;15.258;2022-07-22T11:56:58;7.38;;;6.70;;
29378;SDS011;16362;47.202;15.258;2022-07-22T11:59:25;6.72;;;6.32;;
29378;SDS011;16362;47.202;15.258;2022-07-22T12:01:51;16.52;;;6.45;;
29378;SDS011;16362;47.202;15.258;2022-07-22T12:04:20;7.32;;;6.60;;
29378;SDS011;16362;47.202;15.258;2022-07-22T12:06:49;6.38;;;6.07;;
29378;SDS011;16362;47.202;15.258;2022-07-22T12:09:21;7.07;;;6.47;;
29378;SDS011;16362;47.202;15.258;2022-07-22T12:11:50;6.57;;;6.28;;
29378;SDS011;16362;47.202;15.258;2022-07-22T12:14:23;7.70;;;6.85;;
29378;SDS011;16362;47.202;15.258;2022-07-22T12:19:31;9.40;;;7.00;;
29378;SDS011;16362;47.202;15.258;2022-07-22T12:24:37;8.77;;;6.43;;
29378;SDS011;16362;47.202;15.258;2022-07-22T12:27:06;6.45;;;6.18;;
29378;SDS011;16362;47.202;15.258;2022-07-22T12:29:42;7.25;;;6.60;;
29378;SDS011;16362;47.202;15.258;2022-07-22T12:32:14;7.97;;;5.90;;
29378;SDS011;16362;47.202;15.258;2022-07-22T12:35:02;7.43;;;6.78;;
29378;SDS011;16362;47.202;15.258;2022-07-22T12:37:33;7.40;;;6.72;;
29378;SDS011;16362;47.202;15.258;2022-07-22T12:40:12;7.20;;;6.43;;
29378;SDS011;16362;47.202;15.258;2022-07-22T12:45:27;9.88;;;7.35;;
29378;SDS011;16362;47.202;15.258;2022-07-22T12:47:56;11.05;;;7.18;;
29378;SDS011;16362;47.202;15.258;2022-07-22T12:50:34;9.45;;;7.28;;
29378;SDS011;16362;47.202;15.258;2022-07-22T12:53:06;8.05;;;7.30;;
29378;SDS011;16362;47.202;15.258;2022-07-22T12:55:45;7.60;;;7.10;;
29378;SDS011;16362;47.202;15.258;2022-07-22T12:58:12;7.65;;;6.90;;
29378;SDS011;16362;47.202;15.258;2022-07-22T13:00:43;7.35;;;6.85;;
29378;SDS011;16362;47.202;15.258;2022-07-22T13:03:18;9.23;;;7.60;;
29378;SDS011;16362;47.202;15.258;2022-07-22T13:05:47;7.78;;;7.03;;
29378;SDS011;16362;47.202;15.258;2022-07-22T13:08:14;10.13;;;7.47;;
29378;SDS011;16362;47.202;15.258;2022-07-22T13:10:41;7.88;;;7.47;;
29378;SDS011;16362;47.202;15.258;2022-07-22T13:13:08;8.10;;;7.00;;
29378;SDS011;16362;47.202;15.258;2022-07-22T13:15:35;12.70;;;6.70;;
29378;SDS011;16362;47.202;15.258;2022-07-22T13:18:04;7.70;;;7.10;;
29378;SDS011;16362;47.202;15.258;2022-07-22T13:20:31;6.93;;;6.53;;
29378;SDS011;16362;47.202;15.258;2022-07-22T13:22:58;6.72;;;6.35;;
29378;SDS011;16362;47.202;15.258;2022-07-22T13:25:25;9.80;;;6.82;;
29378;SDS011;16362;47.202;15.258;2022-07-22T13:27:53;6.57;;;6.28;;
29378;SDS011;16362;47.202;15.258;2022-07-22T13:30:21;7.13;;;6.72;;
29378;SDS011;16362;47.202;15.258;2022-07-22T13:32:48;6.57;;;6.15;;
29378;SDS011;16362;47.202;15.258;2022-07-22T13:35:15;7.75;;;7.15;;
29378;SDS011;16362;47.202;15.258;2022-07-22T13:37:45;7.00;;;6.38;;
29378;SDS011;16362;47.202;15.258;2022-07-22T13:40:12;7.25;;;6.65;;
29378;SDS011;16362;47.202;15.258;2022-07-22T13:42:40;7.82;;;6.80;;
29378;SDS011;16362;47.202;15.258;2022-07-22T13:45:07;8.43;;;6.97;;
29378;SDS011;16362;47.202;15.258;2022-07-22T13:47:36;7.25;;;6.85;;
29378;SDS011;16362;47.202;15.258;2022-07-22T13:50:05;7.15;;;6.68;;
29378;SDS011;16362;47.202;15.258;2022-07-22T13:52:32;8.27;;;7.40;;
29378;SDS011;16362;47.202;15.258;2022-07-22T13:54:59;21.02;;;7.18;;
29378;SDS011;16362;47.202;15.258;2022-07-22T13:57:26;9.13;;;7.18;;
29378;SDS011;16362;47.202;15.258;2022-07-22T13:59:52;7.65;;;7.25;;
29378;SDS011;16362;47.202;15.258;2022-07-22T14:02:19;7.40;;;6.95;;
29378;SDS011;16362;47.202;15.258;2022-07-22T14:04:46;10.98;;;7.18;;
29378;SDS011;16362;47.202;15.258;2022-07-22T14:07:13;7.47;;;7.07;;
29378;SDS011;16362;47.202;15.258;2022-07-22T14:09:40;7.75;;;7.20;;
29378;SDS011;16362;47.202;15.258;2022-07-22T14:12:07;7.13;;;6.72;;
29378;SDS011;16362;47.202;15.258;2022-07-22T14:14:34;8.00;;;7.32;;
29378;SDS011;16362;47.202;15.258;2022-07-22T14:17:01;8.65;;;7.03;;
29378;SDS011;16362;47.202;15.258;2022-07-22T14:19:28;9.75;;;7.38;;
29378;SDS011;16362;47.202;15.258;2022-07-22T14:21:55;25.50;;;7.40;;
29378;SDS011;16362;47.202;15.258;2022-07-22T14:24:22;7.60;;;7.10;;
29378;SDS011;16362;47.202;15.258;2022-07-22T14:26:51;7.25;;;6.78;;
29378;SDS011;16362;47.202;15.258;2022-07-22T14:29:17;9.45;;;7.05;;
29378;SDS011;16362;47.202;15.258;2022-07-22T14:31:44;7.32;;;6.78;;
29378;SDS011;16362;47.202;15.258;2022-07-22T14:34:12;7.55;;;6.82;;
29378;SDS011;16362;47.202;15.258;2022-07-22T14:36:39;8.23;;;7.00;;
29378;SDS011;16362;47.202;15.258;2022-07-22T14:39:06;7.32;;;6.90;;
29378;SDS011;16362;47.202;15.258;2022-07-22T14:41:33;8.00;;;7.40;;
29378;SDS011;16362;47.202;15.258;2022-07-22T14:44:00;7.20;;;6.72;;
29378;SDS011;16362;47.202;15.258;2022-07-22T14:46:27;7.13;;;6.53;;
29378;SDS011;16362;47.202;15.258;2022-07-22T14:48:54;7.97;;;7.32;;
29378;SDS011;16362;47.202;15.258;2022-07-22T14:51:21;9.25;;;7.35;;
29378;SDS011;16362;47.202;15.258;2022-07-22T14:53:49;14.98;;;7.15;;
29378;SDS011;16362;47.202;15.258;2022-07-22T14:56:16;8.75;;;7.30;;
29378;SDS011;16362;47.202;15.258;2022-07-22T14:58:43;7.60;;;7.07;;
29378;SDS011;16362;47.202;15.258;2022-07-22T15:01:11;8.63;;;6.70;;
29378;SDS011;16362;47.202;15.258;2022-07-22T15:03:39;7.47;;;6.85;;
29378;SDS011;16362;47.202;15.258;2022-07-22T15:06:07;8.38;;;7.15;;
29378;SDS011;16362;47.202;15.258;2022-07-22T15:08:34;7.43;;;6.50;;